Time;durP1;ratioP1;P1;durP2;ratioP2;P2;SDS_P1;SDS_P2;PMS_P1;PMS_P2;Temp;Humidity;BMP_temperature;BMP_pressure;BME280_temperature;BME280_humidity;BME280_pressure;Samples;Min_cycle;Max_cycle;Signal;HPM_P1;HPM_P2
2022/10/19 00:00:46;;;;;;;2.05;0.57;;;10.60;99.90;;;;;;4995038;28;20400;-77
2022/10/19 00:03:11;;;;;;;2.47;0.45;;;10.60;99.90;;;;;;4995416;28;20041;-77
2022/10/19 00:05:37;;;;;;;3.60;0.60;;;10.60;99.90;;;;;;4994499;28;20100;-77
2022/10/19 00:08:02;;;;;;;1.25;0.50;;;10.60;99.90;;;;;;4979036;28;20081;-77
2022/10/19 00:10:28;;;;;;;1.15;0.40;;;10.60;99.90;;;;;;4995586;28;20044;-77
2022/10/19 00:12:53;;;;;;;6.85;1.00;;;10.60;99.90;;;;;;4995223;28;20042;-77
2022/10/19 00:15:19;;;;;;;1.92;0.57;;;10.60;99.90;;;;;;4992288;28;20045;-77
2022/10/19 00:17:45;;;;;;;3.55;0.63;;;10.60;99.90;;;;;;4994219;28;20046;-77
2022/10/19 00:20:11;;;;;;;4.90;0.65;;;10.60;99.90;;;;;;4978931;28;20042;-77
2022/10/19 00:22:37;;;;;;;4.65;0.80;;;10.60;99.90;;;;;;4994995;28;20042;-77
2022/10/19 00:25:03;;;;;;;3.60;0.68;;;10.60;99.90;;;;;;5010379;28;20446;-77
2022/10/19 00:27:29;;;;;;;3.08;0.90;;;10.50;99.90;;;;;;5009466;28;20030;-77
2022/10/19 00:29:54;;;;;;;4.93;0.93;;;10.50;99.90;;;;;;4993261;28;20036;-77
2022/10/19 00:32:20;;;;;;;3.75;0.70;;;10.60;99.90;;;;;;4993903;28;20034;-77
2022/10/19 00:34:45;;;;;;;1.27;0.50;;;10.50;99.90;;;;;;4979068;28;20046;-77
2022/10/19 00:37:11;;;;;;;2.60;0.60;;;10.60;99.90;;;;;;4993178;28;20048;-76
2022/10/19 00:39:37;;;;;;;2.95;0.73;;;10.60;99.90;;;;;;4994966;28;20038;-77
2022/10/19 00:42:03;;;;;;;5.07;0.90;;;10.60;99.90;;;;;;4993997;28;20046;-77
2022/10/19 00:44:29;;;;;;;2.78;0.80;;;10.50;99.90;;;;;;4978429;28;20555;-77
2022/10/19 00:47:01;;;;;;;1.33;0.57;;;10.60;99.90;;;;;;5009886;28;20045;-77
2022/10/19 00:49:38;;;;;;;3.53;0.70;;;10.50;99.90;;;;;;4994524;28;20407;-77
2022/10/19 00:52:07;;;;;;;4.97;0.95;;;10.60;99.90;;;;;;4992980;28;20049;-78
2022/10/19 00:54:36;;;;;;;2.70;0.80;;;10.50;99.90;;;;;;5027361;28;20081;-77
2022/10/19 00:57:04;;;;;;;2.83;0.88;;;10.60;99.90;;;;;;4994309;28;20053;-78
2022/10/19 00:59:30;;;;;;;6.30;1.10;;;10.50;99.90;;;;;;4994266;28;20500;-77
2022/10/19 01:01:57;;;;;;;7.95;1.30;;;10.50;99.90;;;;;;5010221;28;20050;-77
2022/10/19 01:04:25;;;;;;;5.55;1.40;;;10.50;99.90;;;;;;4978008;28;20035;-77
2022/10/19 01:06:53;;;;;;;4.65;1.23;;;10.50;99.90;;;;;;4992613;28;20038;-78
2022/10/19 01:09:19;;;;;;;4.03;1.02;;;10.50;99.90;;;;;;5010736;28;20412;-78
2022/10/19 01:12:02;;;;;;;4.65;1.40;;;10.50;99.90;;;;;;4993753;28;20468;-78
2022/10/19 01:14:54;;;;;;;6.30;1.60;;;10.50;99.90;;;;;;4994231;28;20042;-77
2022/10/19 01:17:22;;;;;;;6.97;1.20;;;10.60;99.90;;;;;;4972529;28;20456;-78
2022/10/19 01:20:21;;;;;;;8.70;1.50;;;10.60;99.90;;;;;;4974704;28;20373;-79
2022/10/19 01:23:18;;;;;;;6.97;1.40;;;10.60;99.90;;;;;;4997850;28;20046;-77
2022/10/19 01:25:52;;;;;;;7.20;1.45;;;10.60;99.90;;;;;;4993019;28;20434;-78
2022/10/19 01:28:41;;;;;;;7.25;1.52;;;10.60;99.90;;;;;;5010450;28;20046;-77
2022/10/19 01:31:35;;;;;;;2.63;1.20;;;10.60;99.90;;;;;;4988301;28;20050;-79
2022/10/19 01:34:25;;;;;;;10.13;1.65;;;10.60;99.90;;;;;;4982860;28;20038;-77
2022/10/19 01:37:04;;;;;;;6.00;1.55;;;10.60;99.90;;;;;;4971061;28;20444;-78
2022/10/19 01:40:00;;;;;;;5.60;1.52;;;10.60;99.90;;;;;;5006761;28;20050;-77
2022/10/19 01:42:29;;;;;;;4.72;1.23;;;10.60;99.90;;;;;;5026084;28;20038;-77
2022/10/19 01:45:07;;;;;;;5.50;1.50;;;10.60;99.90;;;;;;4976303;28;20092;-77
2022/10/19 01:47:54;;;;;;;3.78;1.25;;;10.60;99.90;;;;;;4993861;28;20073;-78
2022/10/19 01:50:32;;;;;;;7.22;1.45;;;10.60;99.90;;;;;;5009200;28;20061;-78
2022/10/19 01:52:58;;;;;;;4.05;1.20;;;10.60;99.90;;;;;;4993687;28;20046;-78
2022/10/19 01:55:26;;;;;;;5.72;1.40;;;10.60;99.90;;;;;;5008303;28;20049;-78
2022/10/19 01:58:01;;;;;;;5.47;2.00;;;10.70;99.90;;;;;;4993189;28;20120;-77
2022/10/19 02:00:28;;;;;;;7.22;1.40;;;10.60;99.90;;;;;;4993187;28;20043;-77
2022/10/19 02:02:55;;;;;;;7.70;1.42;;;10.70;99.90;;;;;;4976225;28;20057;-78
2022/10/19 02:05:26;;;;;;;6.97;1.23;;;10.70;99.90;;;;;;5007514;28;20038;-78
2022/10/19 02:07:58;;;;;;;4.00;1.10;;;10.80;99.90;;;;;;4992617;28;20043;-78
2022/10/19 02:10:25;;;;;;;3.10;1.20;;;10.70;99.90;;;;;;5008838;28;20049;-78
2022/10/19 02:12:52;;;;;;;7.63;1.60;;;10.70;99.90;;;;;;4992703;28;20053;-77
2022/10/19 02:15:21;;;;;;;4.05;1.20;;;10.70;99.90;;;;;;4975346;28;20042;-78
2022/10/19 02:17:50;;;;;;;7.70;1.20;;;10.80;99.90;;;;;;5009695;28;20377;-77
2022/10/19 02:20:16;;;;;;;5.03;1.20;;;10.70;99.90;;;;;;4992030;28;20097;-77
2022/10/19 02:22:42;;;;;;;4.30;1.27;;;10.70;99.90;;;;;;4976818;28;20105;-77
2022/10/19 02:25:09;;;;;;;7.40;1.52;;;10.80;99.90;;;;;;4992039;28;20038;-78
2022/10/19 02:27:38;;;;;;;7.75;1.70;;;10.70;99.90;;;;;;4992137;28;20105;-78
2022/10/19 02:30:04;;;;;;;6.43;1.27;;;10.80;99.90;;;;;;4976769;28;20385;-78
2022/10/19 02:32:30;;;;;;;3.97;1.20;;;10.70;99.90;;;;;;5009099;28;20130;-78
2022/10/19 02:34:56;;;;;;;6.20;1.38;;;10.70;99.90;;;;;;5006495;28;20112;-78
2022/10/19 02:37:23;;;;;;;6.18;1.75;;;10.80;99.90;;;;;;4991953;28;20040;-77
2022/10/19 02:39:48;;;;;;;3.67;1.10;;;10.80;99.90;;;;;;4976369;28;20038;-77
2022/10/19 02:42:19;;;;;;;7.35;1.40;;;10.80;99.90;;;;;;4991934;28;20182;-77
2022/10/19 02:44:59;;;;;;;6.32;1.40;;;10.70;99.90;;;;;;5006461;28;20053;-77
2022/10/19 02:47:29;;;;;;;8.05;1.33;;;10.70;99.90;;;;;;4973425;28;20437;-78
2022/10/19 02:49:55;;;;;;;4.65;1.70;;;10.70;99.90;;;;;;4973125;28;20089;-77
2022/10/19 02:52:20;;;;;;;6.82;1.30;;;10.70;99.90;;;;;;4992379;28;20038;-77
2022/10/19 02:54:47;;;;;;;7.05;2.05;;;10.80;99.90;;;;;;5007883;28;20046;-77
2022/10/19 02:57:21;;;;;;;4.43;1.17;;;10.70;99.90;;;;;;4973305;28;20111;-78
2022/10/19 02:59:47;;;;;;;7.80;1.17;;;10.70;99.90;;;;;;4989031;28;20055;-77
2022/10/19 03:02:14;;;;;;;5.88;1.27;;;10.70;99.90;;;;;;4990670;28;20049;-78
2022/10/19 03:04:43;;;;;;;6.03;1.33;;;10.70;99.90;;;;;;4975368;28;20092;-78
2022/10/19 03:07:10;;;;;;;5.25;0.90;;;10.70;99.90;;;;;;4975451;28;20097;-78
2022/10/19 03:09:35;;;;;;;5.97;1.00;;;10.70;99.90;;;;;;4992350;28;20045;-78
2022/10/19 03:12:01;;;;;;;3.58;1.08;;;10.70;99.90;;;;;;4992089;28;20038;-78
2022/10/19 03:14:27;;;;;;;5.32;1.15;;;10.60;99.90;;;;;;4976455;28;20049;-77
2022/10/19 03:16:52;;;;;;;3.60;0.90;;;10.60;99.90;;;;;;5008245;28;20151;-77
2022/10/19 03:19:18;;;;;;;2.42;0.95;;;10.60;99.90;;;;;;5011562;28;20042;-78
2022/10/19 03:21:44;;;;;;;7.25;1.33;;;10.60;99.90;;;;;;4995293;28;20499;-78
2022/10/19 03:24:09;;;;;;;12.98;1.63;;;10.60;99.90;;;;;;4996085;28;20404;-78
2022/10/19 03:26:35;;;;;;;6.90;1.05;;;10.60;99.90;;;;;;4979339;28;20051;-78
2022/10/19 03:29:01;;;;;;;5.43;1.90;;;10.60;99.90;;;;;;4980165;28;20125;-77
2022/10/19 03:31:26;;;;;;;9.75;7.45;;;10.60;99.90;;;;;;4994435;28;20050;-77
2022/10/19 03:33:52;;;;;;;26.23;23.77;;;10.50;99.90;;;;;;4979382;28;20042;-78
2022/10/19 03:36:26;;;;;;;8.18;3.67;;;10.50;99.90;;;;;;5011234;28;20073;-78
2022/10/19 03:38:54;;;;;;;9.82;5.68;;;10.50;99.90;;;;;;4996028;28;20042;-77
2022/10/19 03:41:21;;;;;;;6.97;2.50;;;10.40;99.90;;;;;;4979063;28;20093;-77
2022/10/19 03:43:47;;;;;;;6.75;1.40;;;10.50;99.90;;;;;;4995821;28;20130;-78
2022/10/19 03:46:13;;;;;;;7.13;1.00;;;10.50;99.90;;;;;;4995384;28;20450;-78
2022/10/19 03:48:38;;;;;;;5.95;1.08;;;10.50;99.90;;;;;;5012065;28;20042;-78
2022/10/19 03:51:10;;;;;;;4.10;0.85;;;10.50;99.90;;;;;;4995021;28;20496;-79
2022/10/19 03:53:36;;;;;;;4.18;1.13;;;10.50;99.90;;;;;;5012084;28;20038;-78
2022/10/19 03:56:18;;;;;;;4.30;1.20;;;10.40;99.90;;;;;;5010024;28;20042;-78
2022/10/19 03:58:45;;;;;;;7.55;1.20;;;10.40;99.90;;;;;;5011240;28;20432;-77
2022/10/19 04:01:35;;;;;;;5.50;1.00;;;10.20;99.90;;;;;;4995435;28;20138;-78
2022/10/19 04:04:04;;;;;;;4.90;0.80;;;10.10;99.90;;;;;;4973590;28;20072;-78
2022/10/19 04:06:36;;;;;;;2.22;0.80;;;10.10;99.90;;;;;;4978314;28;20556;-79
2022/10/19 04:09:03;;;;;;;2.67;0.70;;;10.00;99.90;;;;;;4995755;28;20405;-78
2022/10/19 04:11:29;;;;;;;4.55;0.75;;;10.00;99.90;;;;;;4978708;28;20093;-78
2022/10/19 04:13:56;;;;;;;5.03;0.88;;;10.00;99.90;;;;;;4994149;28;20124;-78
2022/10/19 04:16:23;;;;;;;4.88;1.08;;;10.00;99.90;;;;;;5010936;28;20458;-77
2022/10/19 04:18:49;;;;;;;9.40;1.70;;;9.90;99.90;;;;;;4978962;28;20038;-77
2022/10/19 04:21:23;;;;;;;3.55;1.25;;;9.90;99.90;;;;;;4977738;28;20041;-78
2022/10/19 04:23:50;;;;;;;8.70;1.30;;;9.80;99.90;;;;;;4995074;28;20074;-78
2022/10/19 04:26:16;;;;;;;5.57;1.00;;;9.70;99.90;;;;;;4994094;28;20554;-78
2022/10/19 04:28:41;;;;;;;3.50;0.93;;;9.70;99.90;;;;;;4995031;28;20034;-78
2022/10/19 04:31:07;;;;;;;5.38;0.88;;;9.60;99.90;;;;;;4978299;28;20041;-78
2022/10/19 04:33:33;;;;;;;5.10;0.70;;;9.60;99.90;;;;;;5010531;28;20488;-78
2022/10/19 04:36:00;;;;;;;8.13;1.00;;;9.60;99.90;;;;;;4977417;28;20041;-78
2022/10/19 04:38:26;;;;;;;3.03;1.00;;;9.70;99.90;;;;;;4994853;28;20073;-77
2022/10/19 04:40:52;;;;;;;6.32;1.63;;;9.70;99.90;;;;;;5011030;28;20092;-77
2022/10/19 04:43:17;;;;;;;7.45;1.02;;;9.70;99.90;;;;;;5011144;28;20042;-78
2022/10/19 04:45:43;;;;;;;6.05;1.00;;;9.70;99.90;;;;;;4977937;28;20492;-77
2022/10/19 04:48:08;;;;;;;6.10;1.08;;;9.70;99.90;;;;;;4994636;28;20085;-77
2022/10/19 04:50:34;;;;;;;8.32;1.02;;;9.70;99.90;;;;;;4977702;28;20406;-77
2022/10/19 04:52:59;;;;;;;5.68;0.98;;;9.70;99.90;;;;;;5009257;28;20093;-77
2022/10/19 04:55:25;;;;;;;4.40;1.20;;;9.70;99.90;;;;;;5019930;28;20034;-78
2022/10/19 04:57:50;;;;;;;4.88;0.98;;;9.60;99.90;;;;;;4976334;28;20137;-77
2022/10/19 05:00:16;;;;;;;5.82;1.00;;;9.60;99.90;;;;;;4992779;28;20057;-77
2022/10/19 05:02:43;;;;;;;7.57;1.50;;;9.50;99.90;;;;;;4989326;28;20046;-78
2022/10/19 05:05:09;;;;;;;6.07;1.17;;;9.50;99.90;;;;;;4987034;28;20039;-77
2022/10/19 05:07:35;;;;;;;8.77;1.20;;;9.50;99.90;;;;;;4984283;28;20400;-77
2022/10/19 05:10:01;;;;;;;6.93;0.98;;;9.50;99.90;;;;;;5025651;28;20039;-78
2022/10/19 05:12:26;;;;;;;8.45;1.10;;;9.50;99.90;;;;;;5005543;28;20045;-78
2022/10/19 05:14:52;;;;;;;4.30;0.90;;;9.50;99.90;;;;;;5007230;28;20043;-77
2022/10/19 05:17:17;;;;;;;5.43;1.15;;;9.40;99.90;;;;;;4992063;28;20042;-77
2022/10/19 05:19:43;;;;;;;7.15;1.48;;;9.40;99.90;;;;;;4977869;28;20116;-78
2022/10/19 05:22:08;;;;;;;7.40;1.17;;;9.40;99.90;;;;;;4993096;28;20112;-78
2022/10/19 05:24:34;;;;;;;9.90;1.55;;;9.40;99.90;;;;;;4988796;28;20041;-78
2022/10/19 05:27:00;;;;;;;6.20;1.17;;;9.50;99.90;;;;;;4993485;28;20516;-77
2022/10/19 05:29:25;;;;;;;7.47;1.63;;;9.50;99.90;;;;;;4976169;28;20038;-78
2022/10/19 05:31:51;;;;;;;7.43;1.50;;;9.40;99.90;;;;;;4992077;28;20093;-78
2022/10/19 05:34:16;;;;;;;8.63;1.20;;;9.40;99.90;;;;;;4975141;28;20092;-78
2022/10/19 05:36:42;;;;;;;6.38;1.10;;;9.50;99.90;;;;;;4991347;28;20053;-78
2022/10/19 05:39:13;;;;;;;7.65;1.45;;;9.50;99.90;;;;;;4992245;28;20049;-78
2022/10/19 05:41:41;;;;;;;8.75;1.52;;;9.50;99.90;;;;;;4975509;28;20042;-78
2022/10/19 05:44:14;;;;;;;7.50;1.20;;;9.40;99.90;;;;;;4991290;28;20042;-78
2022/10/19 05:46:40;;;;;;;6.55;1.30;;;9.40;99.90;;;;;;4992852;28;20053;-78
2022/10/19 05:49:05;;;;;;;13.60;1.60;;;9.40;99.90;;;;;;4991561;28;20038;-78
2022/10/19 05:51:31;;;;;;;9.77;1.40;;;9.50;99.90;;;;;;4992753;28;20045;-78
2022/10/19 05:53:57;;;;;;;7.72;1.20;;;9.50;99.90;;;;;;4974490;28;20053;-78
2022/10/19 05:56:25;;;;;;;9.93;1.42;;;9.50;99.90;;;;;;5013822;28;20042;-78
2022/10/19 05:58:51;;;;;;;9.98;1.40;;;9.50;99.90;;;;;;5007265;28;20133;-79
2022/10/19 06:01:18;;;;;;;7.75;1.23;;;9.50;99.90;;;;;;4992398;28;20493;-78
2022/10/19 06:03:44;;;;;;;11.20;2.08;;;9.50;99.90;;;;;;4989503;28;20046;-80
2022/10/19 06:06:10;;;;;;;8.27;1.20;;;9.50;99.90;;;;;;4981112;28;20038;-78
2022/10/19 06:08:37;;;;;;;4.50;1.05;;;9.50;99.90;;;;;;4987891;28;20093;-78
2022/10/19 06:11:09;;;;;;;7.57;1.25;;;9.60;99.90;;;;;;4992458;28;20111;-78
2022/10/19 06:13:35;;;;;;;9.70;2.13;;;9.60;99.90;;;;;;5007946;28;20049;-78
2022/10/19 06:16:00;;;;;;;7.65;1.30;;;9.60;99.90;;;;;;4991065;28;20053;-78
2022/10/19 06:18:26;;;;;;;9.82;1.50;;;9.60;99.90;;;;;;4974726;28;20034;-78
2022/10/19 06:20:52;;;;;;;7.35;1.15;;;9.70;99.90;;;;;;4974954;28;20531;-77
2022/10/19 06:23:18;;;;;;;6.38;1.20;;;9.70;99.90;;;;;;4991277;28;20412;-77
2022/10/19 06:25:43;;;;;;;5.35;1.63;;;9.70;99.90;;;;;;4972190;28;20046;-77
2022/10/19 06:28:09;;;;;;;11.18;1.73;;;9.70;99.90;;;;;;5025015;28;20042;-78
2022/10/19 06:30:39;;;;;;;8.00;1.40;;;9.70;99.90;;;;;;4975191;28;20408;-78
2022/10/19 06:33:05;;;;;;;8.65;5.15;;;9.70;99.90;;;;;;4976882;28;20046;-78
2022/10/19 06:35:31;;;;;;;18.08;14.55;;;9.80;99.90;;;;;;4990815;28;20084;-78
2022/10/19 06:37:57;;;;;;;12.95;2.00;;;9.80;99.90;;;;;;4990120;28;20098;-77
2022/10/19 06:40:23;;;;;;;6.85;2.50;;;9.70;99.90;;;;;;5006695;28;20417;-77
2022/10/19 06:42:49;;;;;;;11.43;1.50;;;9.70;99.90;;;;;;4991137;28;20038;-78
2022/10/19 06:45:15;;;;;;;8.07;1.20;;;9.70;99.90;;;;;;5019193;28;20060;-77
2022/10/19 06:47:40;;;;;;;10.45;1.42;;;9.80;99.90;;;;;;4990614;28;20492;-75
2022/10/19 06:50:07;;;;;;;8.75;1.58;;;9.80;99.90;;;;;;4990479;28;20473;-75
2022/10/19 06:52:36;;;;;;;8.68;1.63;;;10.00;99.90;;;;;;4974347;28;20034;-78
2022/10/19 06:55:02;;;;;;;7.82;1.27;;;10.00;99.90;;;;;;5008165;28;20042;-78
2022/10/19 06:57:28;;;;;;;8.93;1.55;;;10.10;99.90;;;;;;4976133;28;20488;-77
2022/10/19 06:59:54;;;;;;;6.80;1.48;;;10.00;99.90;;;;;;5008857;28;20053;-77
2022/10/19 07:02:20;;;;;;;7.53;1.23;;;10.10;99.90;;;;;;4992461;28;20049;-78
2022/10/19 07:04:45;;;;;;;9.60;1.58;;;10.10;99.90;;;;;;4990756;28;20038;-78
2022/10/19 07:07:11;;;;;;;11.23;1.92;;;10.10;99.90;;;;;;4992420;28;20030;-77
2022/10/19 07:09:36;;;;;;;9.55;1.60;;;10.10;99.90;;;;;;4992446;28;20046;-77
2022/10/19 07:12:02;;;;;;;11.07;1.38;;;10.10;99.90;;;;;;4992565;28;20465;-77
2022/10/19 07:14:28;;;;;;;9.32;2.15;;;10.10;99.90;;;;;;4992407;28;20046;-77
2022/10/19 07:16:54;;;;;;;10.15;1.40;;;10.10;99.90;;;;;;4992598;28;20097;-77
2022/10/19 07:19:20;;;;;;;10.50;1.55;;;10.20;99.90;;;;;;4992232;28;20562;-77
2022/10/19 07:21:50;;;;;;;8.48;1.15;;;10.20;99.90;;;;;;4992232;28;20068;-77
2022/10/19 07:24:16;;;;;;;7.53;1.40;;;10.20;99.90;;;;;;4976162;28;20069;-77
2022/10/19 07:26:41;;;;;;;8.35;1.63;;;10.30;99.90;;;;;;4976010;28;20485;-77
2022/10/19 07:29:07;;;;;;;6.38;1.50;;;10.30;99.90;;;;;;4992309;28;20042;-78
2022/10/19 07:31:33;;;;;;;6.78;1.70;;;10.40;99.90;;;;;;4992295;28;20038;-77
2022/10/19 07:34:00;;;;;;;10.65;1.55;;;10.40;99.90;;;;;;4991033;28;20046;-78
2022/10/19 07:36:28;;;;;;;6.65;1.50;;;10.50;99.90;;;;;;4991385;28;20117;-78
2022/10/19 07:38:54;;;;;;;8.18;1.48;;;10.50;99.90;;;;;;4992122;28;20512;-78
2022/10/19 07:41:22;;;;;;;14.10;1.83;;;10.50;99.90;;;;;;4975952;28;20045;-78
2022/10/19 07:43:48;;;;;;;6.05;1.40;;;10.50;99.90;;;;;;4992146;28;20046;-78
2022/10/19 07:46:24;;;;;;;8.90;1.65;;;10.60;99.90;;;;;;4975899;28;20034;-78
2022/10/19 07:48:49;;;;;;;12.77;1.55;;;10.60;99.90;;;;;;4992316;28;20492;-78
2022/10/19 07:51:17;;;;;;;9.70;1.80;;;10.60;99.90;;;;;;4992048;28;20124;-78
2022/10/19 07:53:43;;;;;;;10.30;1.50;;;10.70;99.90;;;;;;4991898;28;20497;-78
2022/10/19 07:56:11;;;;;;;10.00;1.65;;;10.70;99.90;;;;;;4975798;28;20061;-78
2022/10/19 07:58:37;;;;;;;11.98;2.03;;;10.70;99.90;;;;;;4991820;28;20069;-78
2022/10/19 08:01:05;;;;;;;13.60;1.95;;;10.80;99.90;;;;;;4991853;28;20042;-78
2022/10/19 08:03:31;;;;;;;12.40;2.50;;;10.80;99.90;;;;;;4974383;28;20503;-78
2022/10/19 08:06:02;;;;;;;10.30;1.80;;;10.90;99.90;;;;;;5010318;28;20042;-78
2022/10/19 08:08:28;;;;;;;11.38;1.67;;;10.90;99.90;;;;;;4979268;28;20125;-78
2022/10/19 08:10:54;;;;;;;12.93;1.90;;;11.00;99.90;;;;;;5011668;28;20560;-77
2022/10/19 08:13:19;;;;;;;8.45;1.67;;;11.00;99.90;;;;;;5011580;28;20134;-78
2022/10/19 08:15:45;;;;;;;12.25;1.75;;;11.00;99.90;;;;;;4995138;28;20046;-77
2022/10/19 08:18:11;;;;;;;9.70;1.42;;;11.10;99.90;;;;;;4979093;28;20149;-78
2022/10/19 08:20:40;;;;;;;7.97;1.60;;;11.10;99.90;;;;;;5011711;28;20046;-78
2022/10/19 08:23:05;;;;;;;9.88;1.55;;;11.20;99.90;;;;;;4994987;28;20516;-78
2022/10/19 08:25:31;;;;;;;6.93;1.52;;;11.20;99.90;;;;;;4978893;28;20043;-78
2022/10/19 08:27:56;;;;;;;10.07;1.38;;;11.30;99.90;;;;;;5011291;28;20058;-78
2022/10/19 08:30:22;;;;;;;6.93;1.20;;;11.30;99.90;;;;;;4994985;28;20381;-78
2022/10/19 08:32:47;;;;;;;9.52;1.73;;;11.30;99.90;;;;;;4978684;28;20427;-78
2022/10/19 08:35:13;;;;;;;11.10;1.55;;;11.40;99.90;;;;;;4993986;28;20046;-78
2022/10/19 08:37:39;;;;;;;9.73;1.73;;;11.40;99.90;;;;;;4994433;28;20034;-78
2022/10/19 08:40:05;;;;;;;11.23;1.60;;;11.40;99.90;;;;;;4993962;28;20523;-77
2022/10/19 08:42:57;;;;;;;9.15;1.45;;;11.50;99.90;;;;;;4994779;28;20172;-78
2022/10/19 08:45:40;;;;;;;9.55;1.45;;;11.60;99.90;;;;;;4994820;28;20049;-78
2022/10/19 08:48:27;;;;;;;7.47;1.20;;;11.60;99.90;;;;;;4994992;28;20092;-78
2022/10/19 08:50:54;;;;;;;9.02;1.70;;;11.60;99.90;;;;;;4994614;28;20042;-78
2022/10/19 08:53:44;;;;;;;6.43;1.05;;;11.70;99.90;;;;;;4978315;28;20497;-78
2022/10/19 08:56:24;;;;;;;6.95;1.40;;;11.70;99.90;;;;;;4994714;28;20500;-78
2022/10/19 08:59:09;;;;;;;10.05;1.45;;;11.60;99.90;;;;;;4994481;28;20129;-78
2022/10/19 09:01:56;;;;;;;10.27;1.48;;;11.80;99.90;;;;;;4975802;28;21283;-78
2022/10/19 09:04:29;;;;;;;6.70;1.20;;;11.80;99.90;;;;;;4978070;28;20065;-77
2022/10/19 09:07:22;;;;;;;9.70;1.45;;;11.90;99.90;;;;;;5010665;28;20051;-78
2022/10/19 09:10:16;;;;;;;10.10;1.40;;;11.80;99.90;;;;;;5027145;28;20117;-77
2022/10/19 09:13:04;;;;;;;7.00;1.02;;;11.90;99.90;;;;;;5027025;28;20043;-77
2022/10/19 09:15:39;;;;;;;8.98;1.48;;;12.00;99.90;;;;;;5010388;28;20038;-78
2022/10/19 09:18:17;;;;;;;9.90;1.40;;;11.90;99.90;;;;;;5021641;28;20100;-77
2022/10/19 09:20:46;;;;;;;8.05;1.73;;;12.00;99.90;;;;;;4990864;28;20046;-77
2022/10/19 09:23:30;;;;;;;5.68;1.05;;;12.00;99.90;;;;;;5007020;28;20043;-77
2022/10/19 09:25:57;;;;;;;5.70;1.13;;;12.00;99.90;;;;;;4990892;28;20042;-77
2022/10/19 09:28:55;;;;;;;7.65;1.88;;;12.00;99.90;;;;;;4958620;28;20042;-77
2022/10/19 09:31:35;;;;;;;10.23;1.65;;;12.10;99.90;;;;;;4963164;28;20117;-78
2022/10/19 09:34:05;;;;;;;11.00;1.42;;;12.10;99.90;;;;;;4994056;28;20038;-77
2022/10/19 09:36:44;;;;;;;7.60;1.25;;;12.10;99.90;;;;;;5026968;28;20046;-77
2022/10/19 09:39:13;;;;;;;8.98;1.20;;;12.20;99.90;;;;;;5025767;28;20053;-77
2022/10/19 09:42:21;;;;;;;9.73;1.90;;;12.10;99.90;;;;;;4993780;28;20053;-77
2022/10/19 09:44:49;;;;;;;7.20;1.60;;;12.10;99.90;;;;;;4977942;28;20451;-77
2022/10/19 09:47:35;;;;;;;8.57;1.50;;;12.20;99.90;;;;;;4993463;28;20084;-77
2022/10/19 09:50:21;;;;;;;10.65;1.35;;;12.20;99.90;;;;;;4993808;28;20405;-77
2022/10/19 09:52:53;;;;;;;7.65;1.20;;;12.20;99.90;;;;;;4977352;28;20045;-77
2022/10/19 09:55:26;;;;;;;9.52;1.55;;;12.20;99.90;;;;;;5009775;28;20097;-77
2022/10/19 09:58:01;;;;;;;7.82;1.65;;;12.10;99.90;;;;;;5026098;28;20137;-77
2022/10/19 10:00:42;;;;;;;5.15;1.00;;;12.20;99.90;;;;;;4993597;28;20404;-77
2022/10/19 10:03:25;;;;;;;7.30;1.25;;;12.20;99.90;;;;;;4990892;28;20504;-77
2022/10/19 10:05:52;;;;;;;7.10;1.15;;;12.20;99.90;;;;;;4993387;28;20145;-77
2022/10/19 10:08:22;;;;;;;9.93;1.40;;;12.30;99.90;;;;;;4993372;28;20049;-77
2022/10/19 10:11:07;;;;;;;7.13;1.85;;;12.30;99.90;;;;;;4993221;28;20043;-77
2022/10/19 10:13:40;;;;;;;9.23;1.67;;;12.30;99.90;;;;;;4976953;28;20038;-77
2022/10/19 10:16:09;;;;;;;7.78;1.30;;;12.40;99.90;;;;;;4993139;28;20057;-77
2022/10/19 10:18:43;;;;;;;8.45;1.55;;;12.40;99.90;;;;;;4993097;28;20045;-82
2022/10/19 10:21:24;;;;;;;8.20;1.40;;;12.40;99.90;;;;;;4973267;28;20134;-77
2022/10/19 10:24:01;;;;;;;7.85;1.50;;;12.40;99.90;;;;;;4991488;28;20042;-77
2022/10/19 10:26:27;;;;;;;10.32;1.42;;;12.50;99.90;;;;;;5003282;28;20060;-77
2022/10/19 10:28:53;;;;;;;7.35;1.30;;;12.50;99.90;;;;;;5008142;28;20579;-77
2022/10/19 10:31:23;;;;;;;7.43;1.40;;;12.50;99.90;;;;;;4975593;28;20443;-77
2022/10/19 10:34:17;;;;;;;7.55;1.30;;;12.50;99.90;;;;;;4973423;28;20066;-77
2022/10/19 10:36:42;;;;;;;7.05;1.30;;;12.50;99.90;;;;;;4991180;28;20630;-77
2022/10/19 10:39:14;;;;;;;8.98;1.85;;;12.50;99.90;;;;;;4973948;28;20120;-77
2022/10/19 10:41:43;;;;;;;7.53;1.83;;;12.60;99.90;;;;;;4991993;28;20492;-77
2022/10/19 10:44:30;;;;;;;8.10;1.55;;;12.60;99.90;;;;;;4991512;28;20515;-77
2022/10/19 10:47:01;;;;;;;7.60;1.40;;;12.50;99.90;;;;;;4976563;28;20035;-77
2022/10/19 10:49:34;;;;;;;7.07;1.40;;;12.50;99.90;;;;;;4975609;28;20041;-77
2022/10/19 10:52:05;;;;;;;9.07;1.58;;;12.50;99.90;;;;;;4989616;28;20045;-77
2022/10/19 10:54:31;;;;;;;7.95;1.40;;;12.50;99.90;;;;;;5008668;28;20165;-77
2022/10/19 10:57:19;;;;;;;6.80;1.35;;;12.60;99.90;;;;;;4976197;28;20092;-77
2022/10/19 11:00:10;;;;;;;8.63;1.60;;;12.60;99.90;;;;;;4988427;28;20057;-77
2022/10/19 11:03:07;;;;;;;6.03;1.30;;;12.70;99.90;;;;;;4999993;28;20049;-77
2022/10/19 11:05:44;;;;;;;8.40;1.42;;;12.70;99.90;;;;;;4977433;28;20086;-77
2022/10/19 11:08:48;;;;;;;9.48;1.48;;;12.70;99.90;;;;;;4992475;28;20092;-77
2022/10/19 11:11:23;;;;;;;6.60;1.17;;;12.80;99.90;;;;;;4956943;28;20054;-77
2022/10/19 11:13:59;;;;;;;7.80;1.73;;;12.80;99.90;;;;;;4973055;28;20050;-77
2022/10/19 11:16:37;;;;;;;8.38;1.35;;;12.80;99.90;;;;;;4987675;28;20523;-75
2022/10/19 11:19:28;;;;;;;9.18;1.52;;;12.80;99.90;;;;;;4991587;28;20037;-78
2022/10/19 11:21:56;;;;;;;8.13;1.33;;;12.90;99.90;;;;;;4992291;28;20042;-78
2022/10/19 11:24:24;;;;;;;6.30;1.38;;;12.90;99.90;;;;;;4992132;28;20051;-78
2022/10/19 11:27:13;;;;;;;8.15;1.70;;;13.00;99.90;;;;;;4976036;28;20089;-78
2022/10/19 11:29:42;;;;;;;6.35;1.30;;;12.90;99.90;;;;;;4992288;28;20493;-78
2022/10/19 11:32:26;;;;;;;9.27;1.50;;;12.90;99.90;;;;;;4992539;28;20043;-78
2022/10/19 11:34:54;;;;;;;6.57;1.45;;;12.90;99.90;;;;;;4992129;28;20050;-78
2022/10/19 11:37:32;;;;;;;7.47;1.58;;;12.90;99.90;;;;;;4992159;28;20054;-78
2022/10/19 11:40:22;;;;;;;10.13;1.63;;;12.80;99.90;;;;;;4978182;28;20070;-78
2022/10/19 11:42:59;;;;;;;9.77;1.55;;;12.80;99.90;;;;;;4996028;28;20129;-78
2022/10/19 11:45:54;;;;;;;7.13;1.50;;;12.90;99.90;;;;;;4995901;28;20085;-78
2022/10/19 11:48:41;;;;;;;7.20;1.60;;;12.90;99.90;;;;;;4979621;28;20129;-78
2022/10/19 11:51:19;;;;;;;8.82;1.45;;;12.90;99.90;;;;;;4995811;28;20070;-78
2022/10/19 11:53:56;;;;;;;8.30;1.55;;;13.00;99.90;;;;;;4995712;28;20105;-77
2022/10/19 11:56:40;;;;;;;9.85;2.38;;;12.80;99.90;;;;;;4979594;28;20038;-78
2022/10/19 11:59:12;;;;;;;6.10;1.33;;;12.80;99.90;;;;;;4995516;28;20178;-79
2022/10/19 12:02:09;;;;;;;9.63;1.80;;;12.80;99.90;;;;;;4995589;28;20050;-79
2022/10/19 12:04:57;;;;;;;8.43;1.50;;;12.80;99.90;;;;;;4979292;28;20057;-78
2022/10/19 12:07:58;;;;;;;8.98;1.60;;;12.80;99.90;;;;;;4995566;28;20050;-78
2022/10/19 12:10:32;;;;;;;7.05;2.08;;;12.90;99.90;;;;;;4995411;28;20042;-78
2022/10/19 12:13:02;;;;;;;8.73;1.77;;;12.90;99.90;;;;;;4995651;28;20487;-78
2022/10/19 12:15:42;;;;;;;8.68;1.40;;;12.80;99.90;;;;;;4979014;28;20042;-78
2022/10/19 12:18:17;;;;;;;11.30;1.50;;;12.80;99.90;;;;;;4994314;28;20052;-78
2022/10/19 12:20:50;;;;;;;9.20;1.30;;;12.80;99.90;;;;;;4993838;28;20129;-78
2022/10/19 12:23:33;;;;;;;12.68;1.92;;;12.70;99.90;;;;;;4994122;28;20114;-76
2022/10/19 12:26:02;;;;;;;6.78;1.20;;;12.70;99.90;;;;;;4977853;28;20042;-76
2022/10/19 12:28:31;;;;;;;8.43;1.63;;;12.70;99.90;;;;;;4992651;28;20504;-77
2022/10/19 12:30:59;;;;;;;7.88;1.23;;;12.60;99.90;;;;;;5009943;28;20125;-77
2022/10/19 12:33:49;;;;;;;7.40;1.27;;;12.60;99.90;;;;;;4982045;28;20053;-77
2022/10/19 12:36:46;;;;;;;8.13;2.10;;;12.80;99.90;;;;;;4974170;28;20077;-77
2022/10/19 12:39:36;;;;;;;6.05;1.20;;;12.90;99.90;;;;;;4993159;28;20046;-77
2022/10/19 12:42:21;;;;;;;8.35;1.30;;;13.00;99.90;;;;;;4981678;28;20042;-76
2022/10/19 12:45:09;;;;;;;7.95;1.30;;;13.10;99.90;;;;;;4993758;28;20038;-77
2022/10/19 12:47:34;;;;;;;8.98;1.13;;;13.20;99.90;;;;;;4992075;28;20038;-76
2022/10/19 12:50:00;;;;;;;9.25;1.70;;;13.30;99.90;;;;;;4976102;28;20129;-77
2022/10/19 12:52:43;;;;;;;7.32;1.50;;;13.30;99.90;;;;;;5006643;28;20042;-77
2022/10/19 12:55:15;;;;;;;7.32;1.30;;;13.30;99.90;;;;;;4985424;28;20069;-77
2022/10/19 12:57:47;;;;;;;6.75;1.25;;;13.50;99.90;;;;;;4994438;28;20049;-77
2022/10/19 13:00:22;;;;;;;6.88;1.25;;;13.60;99.90;;;;;;5010484;28;20042;-77
2022/10/19 13:03:05;;;;;;;7.10;1.35;;;13.60;99.90;;;;;;4994499;28;20492;-77
2022/10/19 13:05:32;;;;;;;7.88;1.52;;;13.80;99.90;;;;;;4976916;28;20049;-77
2022/10/19 13:08:02;;;;;;;8.80;1.63;;;13.80;99.90;;;;;;4974750;28;20042;-77
2022/10/19 13:10:29;;;;;;;8.07;1.42;;;13.80;99.90;;;;;;4991234;28;20485;-77